Terminal Aerodrome Forecast
Issued by NWS Billings, MT

Home | Current Version | Previous Version | Graphics & Text | Print | Product List | Glossary On
Versions: 1 2 3 4 5 6 7 8 9 10 11 12 13 14 15 16 17 18 19 20 21 22 23 24 25 26 27 28 29 30 31 32
000
FTUS45 KBYZ 040447 AAB
TAFMLS
TAF AMD
KMLS 040447Z 0405/0424 03012KT P6SM VCTS BKN080CB OVC150
      TEMPO 0405/0407 VRB15G33KT -TSRA BKN060CB
     FM040700 04012G20KT P6SM VCSH SCT100 BKN150
     FM040900 03007KT P6SM SCT110=

USA.gov is the U.S. government's official web portal to all federal, state and local government web resources and services.